Time;durP1;ratioP1;P1;durP2;ratioP2;P2;SDS_P1;SDS_P2;PMS_P1;PMS_P2;Temp;Humidity;BMP_temperature;BMP_pressure;BME280_temperature;BME280_humidity;BME280_pressure;Samples;Min_cycle;Max_cycle;Signal;HPM_P1;HPM_P2
2021/12/03 00:02:03;;;;;;;10.80;5.80;;;;;;;1.82;70.94;97701.05;102323;1310;62111;-71
2021/12/03 00:04:30;;;;;;;13.90;6.70;;;;;;;1.80;70.83;97702.03;102309;1310;61271;-71
2021/12/03 00:06:57;;;;;;;16.10;6.40;;;;;;;1.78;71.13;97703.72;102336;1310;77039;-71
2021/12/03 00:09:23;;;;;;;9.80;5.40;;;;;;;1.75;71.23;97712.73;102322;1314;69273;-73
2021/12/03 00:11:50;;;;;;;8.30;4.60;;;;;;;1.74;71.00;97719.67;102434;1310;74494;-73
2021/12/03 00:14:16;;;;;;;12.90;5.20;;;;;;;1.72;71.00;97724.32;102368;1310;62145;-74
2021/12/03 00:16:43;;;;;;;11.40;4.80;;;;;;;1.70;70.42;97732.65;101918;1310;62034;-73
2021/12/03 00:19:10;;;;;;;9.70;3.90;;;;;;;1.69;70.93;97740.58;102383;1310;77170;-72
2021/12/03 00:21:37;;;;;;;9.30;3.90;;;;;;;1.67;70.43;97742.25;102433;1310;70072;-74
2021/12/03 00:24:04;;;;;;;8.30;3.80;;;;;;;1.65;70.50;97745.84;102424;1309;74254;-73
2021/12/03 00:26:31;;;;;;;8.20;4.00;;;;;;;1.63;70.75;97742.84;102511;1310;62221;-73
2021/12/03 00:28:58;;;;;;;8.30;3.30;;;;;;;1.60;70.44;97752.05;102575;1311;62245;-73
2021/12/03 00:31:24;;;;;;;6.40;3.00;;;;;;;1.57;70.49;97754.13;102581;1318;76373;-73
2021/12/03 00:33:51;;;;;;;7.80;3.80;;;;;;;1.54;70.18;97758.47;102546;1311;69289;-73
2021/12/03 00:36:17;;;;;;;6.60;3.30;;;;;;;1.52;70.47;97766.45;102398;1310;74545;-73
2021/12/03 00:38:47;;;;;;;7.00;3.50;;;;;;;1.49;70.41;97772.56;102393;1310;62218;-72
2021/12/03 00:41:19;;;;;;;6.20;3.40;;;;;;;1.47;70.52;97775.13;102362;1310;62148;-74
2021/12/03 00:43:52;;;;;;;7.00;3.70;;;;;;;1.45;70.51;97775.41;102454;1310;77035;-72
2021/12/03 00:46:21;;;;;;;10.80;4.30;;;;;;;1.42;70.54;97783.77;102458;1310;70566;-73
2021/12/03 00:48:52;;;;;;;8.80;4.50;;;;;;;1.40;70.86;97787.02;102396;1310;74980;-73
2021/12/03 00:51:21;;;;;;;10.40;4.30;;;;;;;1.39;71.02;97790.40;102420;1310;62894;-73
2021/12/03 00:53:48;;;;;;;5.40;3.30;;;;;;;1.38;70.99;97792.90;102509;1310;62193;-73
2021/12/03 00:56:16;;;;;;;7.30;3.30;;;;;;;1.37;71.04;97796.29;102337;1314;76322;-72
2021/12/03 00:58:44;;;;;;;6.50;3.50;;;;;;;1.34;71.18;97803.06;102377;1311;69596;-73
2021/12/03 01:01:10;;;;;;;7.00;3.50;;;;;;;1.32;71.22;97807.20;102372;1310;74554;-72
2021/12/03 01:03:38;;;;;;;5.40;2.90;;;;;;;1.30;71.32;97811.64;102367;1314;62151;-73
2021/12/03 01:06:06;;;;;;;5.20;3.00;;;;;;;1.30;70.96;97810.41;102023;1316;62080;-72
2021/12/03 01:08:35;;;;;;;6.80;3.10;;;;;;;1.30;70.99;97811.65;102490;1310;77704;-72
2021/12/03 01:11:07;;;;;;;8.00;3.80;;;;;;;1.31;71.25;97815.80;102453;1310;70825;-72
2021/12/03 01:13:36;;;;;;;5.80;3.40;;;;;;;1.32;71.46;97813.98;102434;1310;74622;-72
2021/12/03 01:16:03;;;;;;;6.70;3.20;;;;;;;1.33;71.35;97823.94;102382;1310;62221;-72
2021/12/03 01:18:31;;;;;;;6.80;3.40;;;;;;;1.31;71.41;97822.23;102335;1310;62260;-72
2021/12/03 01:20:58;;;;;;;6.90;2.90;;;;;;;1.30;71.50;97820.19;102348;1311;77844;-72
2021/12/03 01:23:24;;;;;;;8.10;3.90;;;;;;;1.28;71.81;97818.36;102140;1313;69335;-71
2021/12/03 01:25:51;;;;;;;7.70;3.80;;;;;;;1.26;71.98;97816.39;102355;1311;73332;-72
2021/12/03 01:28:18;;;;;;;9.50;4.10;;;;;;;1.23;71.78;97819.66;102322;1310;62104;-72
2021/12/03 01:30:45;;;;;;;6.40;3.60;;;;;;;1.21;71.79;97821.70;102350;1311;62247;-74
2021/12/03 01:33:11;;;;;;;6.00;2.90;;;;;;;1.18;71.82;97816.09;101947;1314;76375;-72
2021/12/03 01:35:38;;;;;;;6.10;3.10;;;;;;;1.16;71.45;97815.50;101913;1317;67697;-72
2021/12/03 01:38:06;;;;;;;7.10;3.50;;;;;;;1.13;71.67;97815.80;102321;1310;73321;-72
2021/12/03 01:40:35;;;;;;;6.80;3.10;;;;;;;1.12;71.60;97817.77;102368;1310;62316;-72
2021/12/03 01:43:04;;;;;;;5.00;2.70;;;;;;;1.11;71.39;97821.13;102418;1310;62108;-72
2021/12/03 01:45:35;;;;;;;6.40;3.30;;;;;;;1.10;71.38;97820.29;102380;1310;77327;-72
2021/12/03 01:48:03;;;;;;;4.20;2.60;;;;;;;1.09;71.18;97824.19;102406;1314;70671;-72
2021/12/03 01:50:34;;;;;;;7.00;3.30;;;;;;;1.09;71.42;97828.73;102045;1313;73592;-73
2021/12/03 01:53:01;;;;;;;7.60;3.00;;;;;;;1.09;71.79;97832.39;102410;1311;62286;-73
2021/12/03 01:55:28;;;;;;;8.60;3.20;;;;;;;1.12;71.89;97839.80;102361;1311;62008;-73
2021/12/03 01:57:55;;;;;;;9.10;3.90;;;;;;;1.14;72.09;97843.90;102358;1311;77873;-72
2021/12/03 02:00:35;;;;;;;7.80;4.00;;;;;;;1.15;72.01;97850.68;102284;1313;70256;-73
2021/12/03 02:03:04;;;;;;;7.40;3.80;;;;;;;1.14;72.26;97854.58;101973;1310;74068;-72
2021/12/03 02:05:31;;;;;;;6.80;4.20;;;;;;;1.12;72.30;97857.13;101896;1316;62058;-72
2021/12/03 02:07:58;;;;;;;7.60;3.90;;;;;;;1.11;72.27;97865.73;102337;1310;62136;-72
2021/12/03 02:10:25;;;;;;;7.30;4.20;;;;;;;1.08;72.24;97874.08;102331;1314;75470;-73
2021/12/03 02:12:52;;;;;;;8.40;4.20;;;;;;;1.06;72.34;97882.23;102329;1310;69549;-72
2021/12/03 02:15:19;;;;;;;6.30;3.50;;;;;;;1.03;72.36;97884.13;102336;1310;73515;-72
2021/12/03 02:17:46;;;;;;;6.30;3.50;;;;;;;1.00;72.39;97885.31;102357;1310;62122;-72
2021/12/03 02:20:14;;;;;;;5.90;3.20;;;;;;;0.97;72.28;97892.28;102384;1317;62343;-72
2021/12/03 02:22:42;;;;;;;8.30;3.80;;;;;;;0.93;72.15;97891.77;102353;1310;78151;-73
2021/12/03 02:25:11;;;;;;;7.50;3.90;;;;;;;0.89;72.58;97898.08;102372;1310;69346;-73
2021/12/03 02:27:38;;;;;;;8.20;4.00;;;;;;;0.84;72.74;97906.33;102398;1311;74367;-73
2021/12/03 02:30:06;;;;;;;7.30;4.40;;;;;;;0.80;72.88;97907.39;102355;1313;62219;-73
2021/12/03 02:32:34;;;;;;;7.10;3.60;;;;;;;0.76;73.07;97910.36;102328;1310;62019;-72
2021/12/03 02:35:02;;;;;;;7.10;4.30;;;;;;;0.72;73.29;97914.20;102291;1314;77684;-72
2021/12/03 02:37:28;;;;;;;6.70;3.90;;;;;;;0.68;73.41;97919.44;102420;1310;69303;-73
2021/12/03 02:39:55;;;;;;;5.40;2.60;;;;;;;0.65;73.34;97923.05;102248;1310;74789;-72
2021/12/03 02:42:22;;;;;;;4.80;2.40;;;;;;;0.63;73.51;97926.14;102345;1310;61574;-73
2021/12/03 02:44:49;;;;;;;7.70;3.00;;;;;;;0.61;73.48;97930.77;102358;1310;62389;-72
2021/12/03 02:47:15;;;;;;;7.60;2.80;;;;;;;0.59;73.60;97937.85;101997;1316;76422;-72
2021/12/03 02:49:42;;;;;;;5.20;2.90;;;;;;;0.55;73.62;97941.86;102339;1310;69349;-72
2021/12/03 02:52:10;;;;;;;4.10;2.30;;;;;;;0.51;73.60;97942.23;102363;1311;74712;-72
2021/12/03 02:54:38;;;;;;;5.30;2.60;;;;;;;0.47;73.85;97940.64;102400;1314;62087;-72
2021/12/03 02:57:05;;;;;;;3.30;2.20;;;;;;;0.43;74.00;97940.45;102299;1310;62202;-72
2021/12/03 02:59:34;;;;;;;4.20;2.30;;;;;;;0.40;74.19;97947.94;102353;1310;76328;-73
2021/12/03 03:02:02;;;;;;;7.50;2.80;;;;;;;0.36;74.48;97950.74;102314;1314;69358;-73
2021/12/03 03:04:30;;;;;;;6.90;2.70;;;;;;;0.33;74.53;97957.36;102464;1310;73399;-73
2021/12/03 03:06:57;;;;;;;8.00;2.90;;;;;;;0.31;74.64;97955.52;102334;1317;62080;-75
2021/12/03 03:09:25;;;;;;;6.10;2.80;;;;;;;0.30;74.82;97957.48;102379;1310;62132;-73
2021/12/03 03:11:52;;;;;;;6.00;2.70;;;;;;;0.28;74.99;97958.77;102387;1310;77214;-73
2021/12/03 03:14:19;;;;;;;5.80;3.30;;;;;;;0.26;75.14;97964.10;102327;1314;70148;-74
2021/12/03 03:16:47;;;;;;;5.80;3.70;;;;;;;0.24;75.16;97963.80;102386;1310;74372;-73
2021/12/03 03:19:17;;;;;;;7.10;3.20;;;;;;;0.23;75.35;97968.39;102300;1311;62115;-73
2021/12/03 03:21:44;;;;;;;;;;;;;;;0.23;75.43;97974.17;102390;1311;62206;-73
2021/12/03 03:24:12;;;;;;;6.10;3.40;;;;;;;0.23;75.64;97978.54;102387;1314;76969;-73
2021/12/03 03:26:41;;;;;;;5.30;2.60;;;;;;;0.23;75.73;97982.55;102370;1311;70803;-73
2021/12/03 03:29:12;;;;;;;6.20;3.40;;;;;;;0.24;75.93;97990.73;102358;1310;74536;-72
2021/12/03 03:31:40;;;;;;;7.20;2.90;;;;;;;0.24;76.08;97991.95;102027;1317;62066;-73
2021/12/03 03:34:08;;;;;;;8.40;3.30;;;;;;;0.24;76.20;97998.56;102402;1314;62376;-72
2021/12/03 03:36:39;;;;;;;5.00;2.60;;;;;;;0.25;76.23;98005.84;102359;1311;77282;-73
2021/12/03 03:39:08;;;;;;;3.60;2.60;;;;;;;0.26;76.20;98007.73;101941;1318;70473;-74
2021/12/03 03:41:35;;;;;;;4.10;2.80;;;;;;;0.26;76.44;98006.86;102439;1311;74429;-73
2021/12/03 03:44:03;;;;;;;4.80;3.00;;;;;;;0.26;76.47;98009.49;102377;1311;62254;-73
2021/12/03 03:46:30;;;;;;;4.90;2.40;;;;;;;0.25;76.60;98010.77;102071;1316;62128;-71
2021/12/03 03:48:57;;;;;;;6.30;2.80;;;;;;;0.23;76.72;98013.45;102375;1310;76336;-73
2021/12/03 03:51:23;;;;;;;6.00;3.00;;;;;;;0.22;76.80;98021.35;102342;1310;69641;-73
2021/12/03 03:53:50;;;;;;;5.60;2.60;;;;;;;0.23;77.07;98026.55;102237;1313;74510;-73
2021/12/03 03:56:17;;;;;;;5.40;2.90;;;;;;;0.23;76.93;98027.63;102357;1317;62274;-73
2021/12/03 03:58:43;;;;;;;4.40;2.20;;;;;;;0.21;77.28;98027.16;102360;1317;62206;-73
2021/12/03 04:01:12;;;;;;;5.90;2.30;;;;;;;0.19;77.11;98026.55;102145;1317;74398;-72
2021/12/03 04:03:45;;;;;;;8.20;2.90;;;;;;;0.17;77.28;98031.16;102400;1311;69475;-73
2021/12/03 04:06:15;;;;;;;5.70;2.90;;;;;;;0.17;77.49;98033.98;101826;1310;72784;-73
2021/12/03 04:08:43;;;;;;;4.40;2.70;;;;;;;0.16;77.63;98037.34;101966;1318;62120;-72
2021/12/03 04:11:11;;;;;;;4.00;2.10;;;;;;;0.16;77.67;98042.05;102436;1311;62109;-72
2021/12/03 04:13:38;;;;;;;7.30;2.80;;;;;;;0.14;77.79;98039.66;102358;1316;77534;-72
2021/12/03 04:16:05;;;;;;;5.40;2.80;;;;;;;0.14;77.78;98046.99;102355;1310;69275;-72
2021/12/03 04:18:31;;;;;;;6.40;3.50;;;;;;;0.15;77.88;98054.13;102294;1317;74310;-72
2021/12/03 04:20:58;;;;;;;6.70;3.80;;;;;;;0.15;77.89;98056.20;102120;1318;62259;-72
2021/12/03 04:23:25;;;;;;;4.10;2.90;;;;;;;0.16;77.92;98068.77;102620;1310;62241;-72
2021/12/03 04:25:53;;;;;;;7.90;4.00;;;;;;;0.15;77.84;98073.51;102696;1311;77253;-72
2021/12/03 04:28:21;;;;;;;10.90;5.20;;;;;;;0.14;77.97;98081.09;102629;1313;69387;-72
2021/12/03 04:30:49;;;;;;;10.00;3.60;;;;;;;0.14;78.06;98088.41;102577;1310;74525;-74
2021/12/03 04:33:18;;;;;;;6.90;3.20;;;;;;;0.14;78.12;98089.46;103662;1310;62056;-73
2021/12/03 04:35:47;;;;;;;4.70;2.70;;;;;;;0.13;78.09;98092.63;102979;1318;62195;-72
2021/12/03 04:38:14;;;;;;;9.20;4.40;;;;;;;0.12;78.27;98089.00;103828;1316;77008;-72
2021/12/03 04:40:42;;;;;;;7.40;3.20;;;;;;;0.12;78.37;98094.40;102980;1317;213913;-71
2021/12/03 04:43:09;;;;;;;14.00;5.00;;;;;;;0.13;78.37;98091.08;102715;1310;74380;-72
2021/12/03 04:45:36;;;;;;;10.10;4.20;;;;;;;0.12;78.49;98091.81;102906;1314;62245;-72
2021/12/03 04:48:05;;;;;;;9.10;5.10;;;;;;;0.09;78.41;98096.96;102820;1311;62137;-73
2021/12/03 04:50:36;;;;;;;13.00;5.40;;;;;;;0.09;78.47;98097.89;102123;1317;77321;-72
2021/12/03 04:53:04;;;;;;;11.90;5.80;;;;;;;0.08;78.53;98103.48;102528;1313;70361;-73
2021/12/03 04:55:32;;;;;;;8.20;6.00;;;;;;;0.08;78.51;98110.46;102477;1313;73571;-72
2021/12/03 04:57:59;;;;;;;14.60;7.00;;;;;;;0.07;78.60;98107.70;102541;1311;62234;-74
2021/12/03 05:00:31;;;;;;;6.70;4.20;;;;;;;0.07;78.68;98109.12;102337;1313;62148;-73
2021/12/03 05:02:59;;;;;;;10.60;4.00;;;;;;;0.07;78.84;98114.54;102371;1310;75380;-72
2021/12/03 05:05:31;;;;;;;8.30;3.70;;;;;;;0.08;78.79;98117.45;102403;1317;70563;-72
2021/12/03 05:08:01;;;;;;;9.60;3.70;;;;;;;0.09;78.81;98120.77;102419;1314;74516;-72
2021/12/03 05:10:30;;;;;;;;;;;;;;;0.09;78.92;98124.95;102397;1311;62135;-72
2021/12/03 05:13:04;;;;;;;7.90;3.50;;;;;;;0.05;78.93;98125.77;101830;1310;62551;-73
2021/12/03 05:15:32;;;;;;;8.80;3.20;;;;;;;0.03;79.03;98132.84;102361;1313;75824;-73
2021/12/03 05:17:58;;;;;;;10.00;4.10;;;;;;;-0.00;79.08;98132.62;102415;1313;69378;-72
2021/12/03 05:20:26;;;;;;;9.60;4.50;;;;;;;-0.02;79.17;98133.58;102312;1316;74707;-71
2021/12/03 05:22:53;;;;;;;6.40;3.30;;;;;;;-0.03;79.28;98135.86;102335;1316;62132;-71
2021/12/03 05:25:21;;;;;;;10.70;5.80;;;;;;;-0.04;79.22;98142.35;102336;1316;62099;-72
2021/12/03 05:27:50;;;;;;;8.70;5.20;;;;;;;-0.06;79.40;98145.58;102391;1314;77274;-72
2021/12/03 05:30:17;;;;;;;11.20;5.00;;;;;;;-0.06;79.40;98146.80;102049;1314;68524;-71
2021/12/03 05:32:44;;;;;;;9.10;4.60;;;;;;;-0.08;79.54;98151.25;102323;1317;74500;-71
2021/12/03 05:35:10;;;;;;;12.40;5.40;;;;;;;-0.11;79.45;98154.48;102144;1318;62169;-72
2021/12/03 05:37:38;;;;;;;9.40;4.20;;;;;;;-0.14;79.63;98154.23;102314;1310;62117;-72
2021/12/03 05:40:07;;;;;;;7.70;3.50;;;;;;;-0.14;79.70;98157.05;102305;1310;77313;-72
2021/12/03 05:42:34;;;;;;;8.10;4.50;;;;;;;-0.15;79.86;98161.46;102418;1310;69979;-74
2021/12/03 05:45:01;;;;;;;8.10;4.40;;;;;;;-0.17;79.79;98161.00;102335;1310;73504;-72
2021/12/03 05:47:27;;;;;;;10.50;4.60;;;;;;;-0.18;79.96;98164.55;102312;1314;62088;-72
2021/12/03 05:49:54;;;;;;;11.00;6.50;;;;;;;-0.18;80.03;98171.35;102358;1317;62105;-72
2021/12/03 05:52:20;;;;;;;11.90;7.80;;;;;;;-0.19;79.91;98166.67;102334;1310;77655;-72
2021/12/03 05:54:47;;;;;;;13.30;8.00;;;;;;;-0.19;80.02;98167.19;102355;1314;62155;-72
2021/12/03 05:57:14;;;;;;;10.40;7.30;;;;;;;-0.19;80.04;98169.13;102282;1317;73522;-72
2021/12/03 05:59:41;;;;;;;12.80;6.60;;;;;;;-0.19;80.15;98178.02;102322;1317;62053;-72
2021/12/03 06:02:08;;;;;;;8.80;6.70;;;;;;;-0.19;80.13;98179.27;102332;1310;62216;-73
2021/12/03 06:04:35;;;;;;;8.90;5.00;;;;;;;-0.21;80.12;98185.07;102300;1314;77228;-72
2021/12/03 06:07:02;;;;;;;11.70;4.80;;;;;;;-0.22;80.13;98193.11;102349;1316;70499;-72
2021/12/03 06:09:28;;;;;;;7.00;4.30;;;;;;;-0.24;80.27;98195.11;102421;1316;73657;-72
2021/12/03 06:11:55;;;;;;;6.20;4.40;;;;;;;-0.25;80.35;98208.26;102316;1310;62031;-72
2021/12/03 06:14:22;;;;;;;8.70;4.70;;;;;;;-0.28;80.40;98211.86;102335;1311;62167;-73
2021/12/03 06:16:48;;;;;;;7.60;4.50;;;;;;;-0.28;80.52;98215.36;102422;1316;75738;-72
2021/12/03 06:19:15;;;;;;;10.50;6.00;;;;;;;-0.28;80.61;98220.05;102403;1313;69316;-72
2021/12/03 06:21:42;;;;;;;15.00;7.80;;;;;;;-0.27;80.56;98222.09;102404;1316;73283;-72
2021/12/03 06:24:08;;;;;;;13.30;9.30;;;;;;;-0.24;80.71;98230.91;102443;1317;62234;-73
2021/12/03 06:26:35;;;;;;;10.20;6.30;;;;;;;-0.23;80.78;98235.93;102423;1317;62337;-72
2021/12/03 06:29:02;;;;;;;16.10;9.60;;;;;;;-0.23;80.90;98238.02;102364;1316;76309;-73
2021/12/03 06:31:29;;;;;;;12.20;9.10;;;;;;;-0.23;80.88;98247.96;102326;1314;70275;-71
2021/12/03 06:33:56;;;;;;;14.20;9.20;;;;;;;-0.22;81.02;98252.14;102320;1310;73491;-73
2021/12/03 06:36:24;;;;;;;14.40;9.30;;;;;;;-0.21;81.12;98256.45;102317;1316;62108;-72
2021/12/03 06:38:51;;;;;;;14.00;9.60;;;;;;;-0.20;81.07;98258.69;102362;1316;62160;-73
2021/12/03 06:41:17;;;;;;;16.20;10.50;;;;;;;-0.19;81.05;98261.11;102283;1316;76453;-71
2021/12/03 06:43:44;;;;;;;14.00;9.70;;;;;;;-0.18;81.24;98264.40;102304;1316;70428;-72
2021/12/03 06:46:11;;;;;;;14.50;9.20;;;;;;;-0.18;81.22;98269.28;102276;1316;74796;-72
2021/12/03 06:48:37;;;;;;;18.10;10.50;;;;;;;-0.19;81.39;98270.70;102008;1313;63640;-72
2021/12/03 06:51:04;;;;;;;18.20;11.70;;;;;;;-0.19;81.49;98268.98;102363;1316;62137;-73
2021/12/03 06:54:23;;;;;;;16.10;9.60;;;;;;;-0.19;81.69;98277.86;102281;1317;77314;-73
2021/12/03 06:56:21;;;;;;;18.40;11.20;;;;;;;-0.20;81.63;98281.20;102206;1317;69589;-73
2021/12/03 06:58:49;;;;;;;13.40;10.00;;;;;;;-0.20;81.74;98287.70;102288;1316;74010;-72
2021/12/03 07:01:16;;;;;;;15.60;9.80;;;;;;;-0.20;81.90;98293.61;102303;1317;62229;-72
2021/12/03 07:03:42;;;;;;;13.70;9.30;;;;;;;-0.18;82.02;98298.79;102316;1317;62145;-71
2021/12/03 07:06:09;;;;;;;14.20;10.90;;;;;;;-0.16;82.00;98303.23;102304;1316;76278;-73
2021/12/03 07:08:36;;;;;;;14.60;9.60;;;;;;;-0.13;82.10;98304.52;101627;1316;1003911;-71
2021/12/03 07:11:02;;;;;;;14.70;9.70;;;;;;;-0.10;82.13;98309.50;102305;1317;74456;-71
2021/12/03 07:13:31;;;;;;;15.20;10.70;;;;;;;-0.08;82.13;98306.11;102338;1317;62241;-72
2021/12/03 07:15:59;;;;;;;15.20;10.60;;;;;;;-0.08;82.08;98312.92;102306;1317;62209;-72
2021/12/03 07:18:25;;;;;;;13.00;10.70;;;;;;;-0.06;82.09;98318.27;102326;1316;75229;-72
2021/12/03 07:20:52;;;;;;;12.60;8.90;;;;;;;-0.05;82.15;98324.53;102266;1317;69771;-71
2021/12/03 07:23:19;;;;;;;11.00;7.90;;;;;;;-0.06;82.15;98326.98;102360;1317;74547;-72
2021/12/03 07:25:45;;;;;;;9.90;6.30;;;;;;;-0.05;82.26;98330.26;102121;1314;62100;-71
2021/12/03 07:28:13;;;;;;;8.80;7.10;;;;;;;-0.04;82.19;98331.45;102381;1317;62137;-76
2021/12/03 07:30:39;;;;;;;12.30;7.50;;;;;;;-0.03;82.31;98332.30;102596;1316;76814;-80
2021/12/03 07:33:10;;;;;;;10.90;7.60;;;;;;;-0.01;82.30;98334.48;102385;1317;68774;-82
2021/12/03 07:35:37;;;;;;;13.90;7.20;;;;;;;0.04;82.20;98338.88;102404;1317;74489;-80
2021/12/03 07:38:03;;;;;;;9.30;5.30;;;;;;;0.07;82.19;98340.89;102408;1316;62114;-79
2021/12/03 07:40:30;;;;;;;10.80;6.80;;;;;;;0.07;82.15;98345.41;102476;1317;62260;-81
2021/12/03 07:42:57;;;;;;;11.00;6.90;;;;;;;0.09;82.26;98351.83;102533;1313;77256;-75
2021/12/03 07:45:23;;;;;;;9.10;6.60;;;;;;;0.07;82.21;98355.00;102311;1316;69530;-74
2021/12/03 07:47:50;;;;;;;9.70;6.90;;;;;;;0.08;82.15;98360.91;102291;1317;73499;-78
2021/12/03 07:50:17;;;;;;;6.50;5.70;;;;;;;0.09;82.23;98371.00;102076;1317;62284;-75
2021/12/03 07:52:44;;;;;;;9.30;6.60;;;;;;;0.09;82.16;98368.58;102340;1310;62257;-75
2021/12/03 07:55:11;;;;;;;8.60;6.90;;;;;;;0.09;82.16;98376.05;102319;1310;76369;-74
2021/12/03 07:57:38;;;;;;;8.30;5.90;;;;;;;0.10;82.27;98377.24;101991;1318;68657;-75
2021/12/03 08:00:07;;;;;;;10.10;6.20;;;;;;;0.11;82.35;98381.61;102307;1316;73991;-74
2021/12/03 08:02:34;;;;;;;10.30;7.10;;;;;;;0.09;82.25;98383.22;102317;1313;62138;-76
2021/12/03 08:05:01;;;;;;;7.50;6.30;;;;;;;0.08;82.38;98391.83;102335;1311;62222;-75
2021/12/03 08:07:28;;;;;;;7.90;5.80;;;;;;;0.06;82.26;98399.77;102316;1317;76181;-75
2021/12/03 08:09:54;;;;;;;7.80;5.00;;;;;;;0.06;82.21;98400.29;102315;1311;69655;-76
2021/12/03 08:12:21;;;;;;;5.80;4.70;;;;;;;0.07;82.10;98399.89;102353;1311;73520;-75
2021/12/03 08:14:47;;;;;;;6.10;3.50;;;;;;;0.10;82.07;98401.01;102312;1317;62237;-74
2021/12/03 08:17:14;;;;;;;5.90;3.60;;;;;;;0.12;81.90;98403.39;102309;1310;62017;-76
2021/12/03 08:19:40;;;;;;;4.00;3.00;;;;;;;0.12;81.82;98408.45;101908;1313;76307;-75
2021/12/03 08:22:07;;;;;;;5.80;3.00;;;;;;;0.13;81.80;98413.67;102305;1317;71181;-77
2021/12/03 08:24:34;;;;;;;5.20;3.30;;;;;;;0.14;81.87;98424.28;102310;1311;73498;-74
2021/12/03 08:27:00;;;;;;;5.50;3.40;;;;;;;0.20;82.03;98430.52;101882;1318;62107;-76
2021/12/03 08:29:27;;;;;;;5.70;3.80;;;;;;;0.25;81.97;98433.52;102282;1314;62093;-75
2021/12/03 08:31:54;;;;;;;7.10;5.20;;;;;;;0.31;81.96;98430.34;102329;1310;73836;-75
2021/12/03 08:34:20;;;;;;;7.60;3.90;;;;;;;0.36;81.89;98428.59;101636;1316;1003051;-75
2021/12/03 08:36:47;;;;;;;5.30;3.50;;;;;;;0.40;81.73;98428.96;102322;1316;62126;-73
2021/12/03 08:39:14;;;;;;;5.60;4.30;;;;;;;0.42;81.64;98430.11;102316;1310;62190;-75
2021/12/03 08:41:41;;;;;;;5.90;3.50;;;;;;;0.47;81.74;98437.49;102324;1310;62136;-74
2021/12/03 08:44:07;;;;;;;5.60;4.40;;;;;;;0.50;81.63;98438.27;102366;1310;76382;-74
2021/12/03 08:46:36;;;;;;;7.60;4.10;;;;;;;0.54;81.63;98446.15;102343;1316;69439;-75
2021/12/03 08:54:49;;;;;;;6.30;3.70;;;;;;;0.71;81.16;98455.48;101845;1317;62299;-76
2021/12/03 08:57:19;;;;;;;8.40;3.30;;;;;;;0.80;80.90;98457.27;101884;1317;77170;-76
2021/12/03 08:59:46;;;;;;;6.90;4.40;;;;;;;0.86;79.79;98457.05;101959;1316;69505;-74
2021/12/03 09:02:13;;;;;;;7.60;4.70;;;;;;;0.90;80.01;98460.42;102020;1317;73618;-75
2021/12/03 09:04:39;;;;;;;7.10;4.00;;;;;;;0.97;80.09;98462.61;101859;1315;62254;-77
2021/12/03 09:07:06;;;;;;;5.70;3.50;;;;;;;1.05;80.20;98464.94;101852;1316;62056;-75
2021/12/03 09:09:33;;;;;;;7.60;3.80;;;;;;;1.11;80.02;98467.87;101783;1323;77175;-75
2021/12/03 09:12:00;;;;;;;8.50;4.70;;;;;;;1.19;79.99;98468.98;101831;1317;70775;-74
2021/12/03 09:14:49;;;;;;;8.80;5.40;;;;;;;1.25;79.40;98476.61;101827;1316;73620;-76
2021/12/03 09:22:37;;;;;;;12.50;9.00;;;;;;;1.55;79.39;98482.30;101778;1317;77054;-77
2021/12/03 09:25:07;;;;;;;11.00;7.60;;;;;;;1.64;78.59;98481.41;101733;1322;69841;-78
2021/12/03 09:27:35;;;;;;;9.70;7.70;;;;;;;1.65;77.99;98481.36;101887;1317;74321;-77
2021/12/03 09:30:05;;;;;;;10.30;7.30;;;;;;;1.65;77.57;98481.90;101925;1313;62208;-77
2021/12/03 09:32:33;;;;;;;8.60;5.60;;;;;;;1.69;77.52;98478.94;102317;1317;62037;-76
2021/12/03 09:35:02;;;;;;;9.50;6.70;;;;;;;1.73;77.22;98477.75;102393;1310;77319;-77
2021/12/03 09:37:29;;;;;;;7.50;6.60;;;;;;;1.83;77.05;98476.14;102403;1313;70533;-78
2021/12/03 09:40:02;;;;;;;8.60;6.90;;;;;;;1.92;76.00;98475.94;102358;1310;72459;-76
2021/12/03 09:42:30;;;;;;;11.50;8.20;;;;;;;1.94;75.43;98477.75;102324;1317;62135;-76
2021/12/03 09:44:56;;;;;;;10.30;7.40;;;;;;;1.96;75.01;98479.98;101984;1314;62284;-76
2021/12/03 09:47:23;;;;;;;7.40;6.80;;;;;;;2.05;75.16;98478.20;102347;1310;77285;-78
2021/12/03 09:49:54;;;;;;;7.00;6.40;;;;;;;2.15;74.30;98474.98;102443;1317;70564;-77
2021/12/03 09:53:19;;;;;;;8.10;5.90;;;;;;;2.14;74.49;98477.83;102090;1314;72949;-77
2021/12/03 09:55:13;;;;;;;;;;;;;;;2.12;74.48;98471.23;102486;1310;62154;-77
2021/12/03 09:58:02;;;;;;;8.50;6.20;;;;;;;2.12;74.82;98469.70;103466;1310;62210;-77
2021/12/03 10:00:39;;;;;;;8.70;7.20;;;;;;;2.12;74.79;98466.17;103779;1314;77083;-77
2021/12/03 10:20:10;;;;;;;3.70;2.80;;;;;;;2.01;73.77;98455.77;102054;1316;74589;-78
2021/12/03 10:26:09;;;;;;;4.70;3.50;;;;;;;1.95;73.05;98460.23;102064;1320;62085;-74
2021/12/03 10:36:44;;;;;;;3.50;2.90;;;;;;;1.84;72.62;98456.11;102197;1316;62107;-74
2021/12/03 10:42:11;;;;;;;5.20;3.40;;;;;;;1.86;69.78;98449.71;102524;1316;76364;-74
2021/12/03 10:52:56;;;;;;;7.10;3.80;;;;;;;1.81;70.96;98457.62;104669;1325;60973;-75
2021/12/03 10:58:57;;;;;;;6.00;3.60;;;;;;;1.82;69.84;98453.05;104577;1320;69511;-73
2021/12/03 11:46:36;;;;;;;8.70;4.80;;;;;;;2.14;68.36;98440.88;102307;1311;62244;-74
2021/12/03 11:49:12;;;;;;;6.60;4.20;;;;;;;2.15;68.42;98441.70;102369;1310;62025;-74
2021/12/03 12:20:18;;;;;;;14.30;8.20;;;;;;;2.19;69.39;98442.23;102667;1311;76389;-75
2021/12/03 12:35:26;;;;;;;21.80;8.40;;;;;;;2.20;68.13;98435.89;101789;1316;75201;-75
2021/12/03 13:46:06;;;;;;;8.10;4.80;;;;;;;1.82;66.24;98495.25;102317;1314;68934;-75
2021/12/03 14:55:08;;;;;;;19.40;10.90;;;;;;;0.04;69.07;98549.47;102428;1311;74752;-76
2021/12/03 14:57:42;;;;;;;20.30;10.70;;;;;;;-0.05;69.38;98550.98;102290;1310;62203;-76
2021/12/03 15:23:04;;;;;;;29.40;14.70;;;;;;;-0.46;69.69;98567.25;102350;1310;74494;-77
2021/12/03 15:31:02;;;;;;;17.20;9.90;;;;;;;-0.44;69.97;98571.91;102068;1318;77285;-75
2021/12/03 15:52:39;;;;;;;26.60;11.50;;;;;;;-0.39;70.62;98581.88;101849;1316;62285;-75
2021/12/03 16:06:16;;;;;;;37.50;16.00;;;;;;;-0.65;71.21;98595.19;101823;1316;62251;-76
2021/12/03 16:08:42;;;;;;;34.30;16.30;;;;;;;-0.69;71.46;98599.45;101809;1316;62271;-75
2021/12/03 16:17:00;;;;;;;46.50;21.40;;;;;;;-0.75;71.98;98599.14;102292;1313;74699;-76
2021/12/03 16:51:51;;;;;;;41.20;19.60;;;;;;;-1.05;72.48;98639.33;102496;1310;76276;-78
2021/12/03 16:54:22;;;;;;;32.90;16.10;;;;;;;-1.03;72.47;98641.02;102629;1311;68731;-76
2021/12/03 16:56:51;;;;;;;50.40;22.20;;;;;;;-1.01;72.52;98646.37;102639;1310;74584;-75
2021/12/03 16:59:19;;;;;;;29.10;14.20;;;;;;;-1.00;72.37;98649.48;102407;1310;62218;-77
2021/12/03 17:02:10;;;;;;;31.90;16.30;;;;;;;-0.98;72.18;98650.31;102819;1314;62206;-74
2021/12/03 17:50:23;;;;;;;34.30;17.70;;;;;;;-1.51;71.82;98667.14;102298;1310;74555;-79
2021/12/03 17:53:16;;;;;;;41.70;18.70;;;;;;;-1.55;71.78;98668.44;102260;1310;62221;-76
2021/12/03 18:14:00;;;;;;;40.90;17.70;;;;;;;-1.45;71.01;98669.26;102330;1311;70561;-76
2021/12/03 18:52:32;;;;;;;36.80;17.70;;;;;;;-1.84;70.93;98641.24;101982;1317;75490;-76
2021/12/03 18:54:36;;;;;;;29.30;15.90;;;;;;;-1.84;70.93;98641.77;102362;1311;66692;-76
2021/12/03 18:57:09;;;;;;;34.50;17.10;;;;;;;-1.83;70.93;98637.90;102230;1311;73435;-75
2021/12/03 18:59:40;;;;;;;30.90;16.00;;;;;;;-1.83;70.82;98637.05;101856;1311;62092;-76
2021/12/03 19:02:09;;;;;;;26.50;15.60;;;;;;;-1.83;70.70;98634.06;102332;1310;62198;-76
2021/12/03 19:04:47;;;;;;;31.50;15.10;;;;;;;-1.81;70.67;98632.65;102253;1311;77221;-79
2021/12/03 19:07:20;;;;;;;24.90;13.80;;;;;;;-1.82;70.65;98635.30;102289;1314;70415;-76
2021/12/03 19:09:49;;;;;;;32.80;16.30;;;;;;;-1.84;70.66;98636.90;102298;1311;74789;-76
2021/12/03 19:12:21;;;;;;;32.00;15.10;;;;;;;-1.86;70.58;98636.76;102286;1314;62116;-76
2021/12/03 19:14:51;;;;;;;34.90;18.00;;;;;;;-1.88;70.53;98636.46;102382;1310;62124;-75
2021/12/03 19:17:18;;;;;;;37.20;17.60;;;;;;;-1.91;70.67;98642.97;102392;1310;77347;-78
2021/12/03 19:19:47;;;;;;;40.10;20.90;;;;;;;-1.97;70.58;98641.20;102003;1313;69064;-77
2021/12/03 19:22:16;;;;;;;39.20;17.50;;;;;;;-2.05;70.60;98637.52;102579;1310;72589;-78
2021/12/03 19:24:44;;;;;;;46.10;21.40;;;;;;;-2.12;70.74;98635.23;102427;1313;62126;-79